sensor_id;sensor_type;location;lat;lon;timestamp;pressure;altitude;pressure_sealevel;temperature;humidity
13312;BME280;34033;48.672;9.376;2023-12-20T00:02:17;98561.22;;;6.65;82.67
13312;BME280;34033;48.672;9.376;2023-12-20T00:04:42;98572.34;;;6.65;82.59
13312;BME280;34033;48.672;9.376;2023-12-20T00:07:08;98569.09;;;6.63;82.29
13312;BME280;34033;48.672;9.376;2023-12-20T00:09:33;98562.47;;;6.68;82.33
13312;BME280;34033;48.672;9.376;2023-12-20T00:11:59;98553.59;;;6.62;82.86
13312;BME280;34033;48.672;9.376;2023-12-20T00:14:24;98539.63;;;6.59;82.94
13312;BME280;34033;48.672;9.376;2023-12-20T00:16:50;98542.41;;;6.59;83.25
13312;BME280;34033;48.672;9.376;2023-12-20T00:19:15;98544.84;;;6.60;83.25
13312;BME280;34033;48.672;9.376;2023-12-20T00:21:40;98532.19;;;6.63;82.64
13312;BME280;34033;48.672;9.376;2023-12-20T00:24:06;98535.41;;;6.65;82.12
13312;BME280;34033;48.672;9.376;2023-12-20T00:26:34;98529.13;;;6.68;82.48
13312;BME280;34033;48.672;9.376;2023-12-20T00:29:00;98516.56;;;6.74;82.44
13312;BME280;34033;48.672;9.376;2023-12-20T00:31:25;98512.16;;;6.73;82.44
13312;BME280;34033;48.672;9.376;2023-12-20T00:33:50;98510.94;;;6.70;83.47
13312;BME280;34033;48.672;9.376;2023-12-20T00:36:16;98504.56;;;6.70;84.37
13312;BME280;34033;48.672;9.376;2023-12-20T00:38:41;98503.06;;;6.73;85.20
13312;BME280;34033;48.672;9.376;2023-12-20T00:41:06;98507.41;;;6.74;85.86
13312;BME280;34033;48.672;9.376;2023-12-20T00:43:32;98503.06;;;6.73;86.21
13312;BME280;34033;48.672;9.376;2023-12-20T00:46:00;98493.63;;;6.77;85.96
13312;BME280;34033;48.672;9.376;2023-12-20T00:48:25;98498.09;;;6.82;85.83
13312;BME280;34033;48.672;9.376;2023-12-20T00:50:52;98492.16;;;6.83;85.65
13312;BME280;34033;48.672;9.376;2023-12-20T00:53:17;98496.19;;;6.86;85.76
13312;BME280;34033;48.672;9.376;2023-12-20T00:55:43;98492.53;;;6.82;85.77
13312;BME280;34033;48.672;9.376;2023-12-20T00:58:10;98494.56;;;6.85;85.59
13312;BME280;34033;48.672;9.376;2023-12-20T01:00:35;98483.44;;;6.85;84.84
13312;BME280;34033;48.672;9.376;2023-12-20T01:03:00;98487.47;;;6.87;85.34
13312;BME280;34033;48.672;9.376;2023-12-20T01:05:25;98479.22;;;6.91;84.70
13312;BME280;34033;48.672;9.376;2023-12-20T01:07:51;98485.22;;;6.93;84.88
13312;BME280;34033;48.672;9.376;2023-12-20T01:10:16;98496.41;;;6.96;84.67
13312;BME280;34033;48.672;9.376;2023-12-20T01:12:43;98505.19;;;6.98;83.72
13312;BME280;34033;48.672;9.376;2023-12-20T01:15:08;98496.50;;;7.00;84.01
13312;BME280;34033;48.672;9.376;2023-12-20T01:17:34;98494.88;;;6.99;84.84
13312;BME280;34033;48.672;9.376;2023-12-20T01:19:59;98502.41;;;6.98;86.27
13312;BME280;34033;48.672;9.376;2023-12-20T01:22:24;98498.38;;;6.96;87.18
13312;BME280;34033;48.672;9.376;2023-12-20T01:24:51;98500.34;;;6.95;88.19
13312;BME280;34033;48.672;9.376;2023-12-20T01:27:16;98516.38;;;6.83;88.63
13312;BME280;34033;48.672;9.376;2023-12-20T01:29:41;98517.06;;;6.80;90.93
13312;BME280;34033;48.672;9.376;2023-12-20T01:32:07;98520.31;;;6.82;91.96
13312;BME280;34033;48.672;9.376;2023-12-20T01:34:32;98517.81;;;6.77;92.74
13312;BME280;34033;48.672;9.376;2023-12-20T01:36:57;98523.00;;;6.78;93.84
13312;BME280;34033;48.672;9.376;2023-12-20T01:39:23;98522.56;;;6.76;94.14
13312;BME280;34033;48.672;9.376;2023-12-20T01:41:49;98536.75;;;6.71;94.75
13312;BME280;34033;48.672;9.376;2023-12-20T01:44:17;98531.09;;;6.67;95.90
13312;BME280;34033;48.672;9.376;2023-12-20T01:46:42;98535.47;;;6.68;96.32
13312;BME280;34033;48.672;9.376;2023-12-20T01:49:08;98524.38;;;6.68;97.27
13312;BME280;34033;48.672;9.376;2023-12-20T01:51:33;98529.94;;;6.68;98.17
13312;BME280;34033;48.672;9.376;2023-12-20T01:54:00;98527.00;;;6.61;99.28
13312;BME280;34033;48.672;9.376;2023-12-20T01:56:28;98530.16;;;6.60;100.00
13312;BME280;34033;48.672;9.376;2023-12-20T01:58:55;98529.63;;;6.54;100.00
13312;BME280;34033;48.672;9.376;2023-12-20T02:01:24;98525.50;;;6.48;100.00
13312;BME280;34033;48.672;9.376;2023-12-20T02:03:51;98527.94;;;6.50;100.00
13312;BME280;34033;48.672;9.376;2023-12-20T02:06:18;98525.06;;;6.46;100.00
13312;BME280;34033;48.672;9.376;2023-12-20T02:08:43;98522.03;;;6.36;100.00
13312;BME280;34033;48.672;9.376;2023-12-20T02:11:10;98519.72;;;6.38;100.00
13312;BME280;34033;48.672;9.376;2023-12-20T02:13:35;98520.59;;;6.42;100.00
13312;BME280;34033;48.672;9.376;2023-12-20T02:16:00;98521.31;;;6.39;100.00
13312;BME280;34033;48.672;9.376;2023-12-20T02:18:26;98526.06;;;6.38;100.00
13312;BME280;34033;48.672;9.376;2023-12-20T02:20:51;98520.59;;;6.42;100.00
13312;BME280;34033;48.672;9.376;2023-12-20T02:23:17;98517.75;;;6.38;100.00
13312;BME280;34033;48.672;9.376;2023-12-20T02:25:42;98515.66;;;6.35;100.00
13312;BME280;34033;48.672;9.376;2023-12-20T02:28:07;98518.03;;;6.33;100.00
13312;BME280;34033;48.672;9.376;2023-12-20T02:30:33;98513.16;;;6.30;100.00
13312;BME280;34033;48.672;9.376;2023-12-20T02:33:00;98511.94;;;6.27;100.00
13312;BME280;34033;48.672;9.376;2023-12-20T02:35:26;98512.00;;;6.31;100.00
13312;BME280;34033;48.672;9.376;2023-12-20T02:37:51;98520.41;;;6.35;100.00
13312;BME280;34033;48.672;9.376;2023-12-20T02:40:16;98514.84;;;6.35;100.00
13312;BME280;34033;48.672;9.376;2023-12-20T02:42:42;98520.41;;;6.35;100.00
13312;BME280;34033;48.672;9.376;2023-12-20T02:45:07;98520.50;;;6.38;100.00
13312;BME280;34033;48.672;9.376;2023-12-20T02:47:33;98525.16;;;6.34;100.00
13312;BME280;34033;48.672;9.376;2023-12-20T02:49:58;98520.13;;;6.40;100.00
13312;BME280;34033;48.672;9.376;2023-12-20T02:52:24;98529.94;;;6.34;100.00
13312;BME280;34033;48.672;9.376;2023-12-20T02:54:50;98526.34;;;6.33;100.00
13312;BME280;34033;48.672;9.376;2023-12-20T02:57:15;98530.81;;;6.38;100.00
13312;BME280;34033;48.672;9.376;2023-12-20T02:59:40;98527.31;;;6.41;100.00
13312;BME280;34033;48.672;9.376;2023-12-20T03:02:05;98531.69;;;6.42;100.00
13312;BME280;34033;48.672;9.376;2023-12-20T03:04:31;98521.22;;;6.35;100.00
13312;BME280;34033;48.672;9.376;2023-12-20T03:06:56;98526.34;;;6.33;100.00
13312;BME280;34033;48.672;9.376;2023-12-20T03:09:21;98524.00;;;6.35;100.00
13312;BME280;34033;48.672;9.376;2023-12-20T03:11:47;98526.78;;;6.35;100.00
13312;BME280;34033;48.672;9.376;2023-12-20T03:14:12;98540.22;;;6.33;100.00
13312;BME280;34033;48.672;9.376;2023-12-20T03:16:37;98529.28;;;6.40;100.00
13312;BME280;34033;48.672;9.376;2023-12-20T03:19:03;98536.53;;;6.45;100.00
13312;BME280;34033;48.672;9.376;2023-12-20T03:21:28;98538.06;;;6.42;100.00
13312;BME280;34033;48.672;9.376;2023-12-20T03:23:53;98540.47;;;6.44;100.00
13312;BME280;34033;48.672;9.376;2023-12-20T03:26:19;98542.81;;;6.42;100.00
13312;BME280;34033;48.672;9.376;2023-12-20T03:28:44;98538.59;;;6.32;100.00
13312;BME280;34033;48.672;9.376;2023-12-20T03:31:10;98540.66;;;6.35;100.00
13312;BME280;34033;48.672;9.376;2023-12-20T03:33:35;98546.22;;;6.35;100.00
13312;BME280;34033;48.672;9.376;2023-12-20T03:36:01;98544.69;;;6.38;100.00
13312;BME280;34033;48.672;9.376;2023-12-20T03:38:26;98550.78;;;6.43;100.00
13312;BME280;34033;48.672;9.376;2023-12-20T03:40:51;98553.19;;;6.45;100.00
13312;BME280;34033;48.672;9.376;2023-12-20T03:43:20;98557.22;;;6.47;100.00
13312;BME280;34033;48.672;9.376;2023-12-20T03:45:45;98557.22;;;6.47;100.00
13312;BME280;34033;48.672;9.376;2023-12-20T03:48:11;98560.72;;;6.44;100.00
13312;BME280;34033;48.672;9.376;2023-12-20T03:50:37;98562.78;;;6.47;100.00
13312;BME280;34033;48.672;9.376;2023-12-20T03:53:02;98565.56;;;6.47;100.00
13312;BME280;34033;48.672;9.376;2023-12-20T03:55:29;98578.19;;;6.45;100.00
13312;BME280;34033;48.672;9.376;2023-12-20T03:57:54;98574.50;;;6.41;100.00
13312;BME280;34033;48.672;9.376;2023-12-20T04:00:19;98565.28;;;6.37;100.00
13312;BME280;34033;48.672;9.376;2023-12-20T04:02:45;98570.78;;;6.33;100.00
13312;BME280;34033;48.672;9.376;2023-12-20T04:05:10;98579.72;;;6.42;100.00
13312;BME280;34033;48.672;9.376;2023-12-20T04:07:36;98572.72;;;6.48;100.00
13312;BME280;34033;48.672;9.376;2023-12-20T04:10:02;98576.31;;;6.49;100.00
13312;BME280;34033;48.672;9.376;2023-12-20T04:12:29;98579.09;;;6.49;100.00
13312;BME280;34033;48.672;9.376;2023-12-20T04:14:57;98577.66;;;6.55;100.00
13312;BME280;34033;48.672;9.376;2023-12-20T04:17:22;98587.75;;;6.63;100.00
13312;BME280;34033;48.672;9.376;2023-12-20T04:19:51;98591.69;;;6.62;100.00
13312;BME280;34033;48.672;9.376;2023-12-20T04:22:18;98590.09;;;6.61;100.00
13312;BME280;34033;48.672;9.376;2023-12-20T04:24:44;98581.84;;;6.64;100.00
13312;BME280;34033;48.672;9.376;2023-12-20T04:27:12;98583.81;;;6.64;100.00
13312;BME280;34033;48.672;9.376;2023-12-20T04:29:37;98588.53;;;6.63;100.00
13312;BME280;34033;48.672;9.376;2023-12-20T04:32:03;98592.50;;;6.62;100.00
13312;BME280;34033;48.672;9.376;2023-12-20T04:34:29;98595.19;;;6.59;100.00
13312;BME280;34033;48.672;9.376;2023-12-20T04:36:54;98599.41;;;6.53;100.00
13312;BME280;34033;48.672;9.376;2023-12-20T04:39:20;98593.69;;;6.61;100.00
13312;BME280;34033;48.672;9.376;2023-12-20T04:41:45;98602.09;;;6.65;100.00
13312;BME280;34033;48.672;9.376;2023-12-20T04:44:13;98603.16;;;6.60;100.00
13312;BME280;34033;48.672;9.376;2023-12-20T04:46:38;98598.41;;;6.45;100.00
13312;BME280;34033;48.672;9.376;2023-12-20T04:49:04;98598.69;;;6.56;100.00
13312;BME280;34033;48.672;9.376;2023-12-20T04:51:29;98600.66;;;6.55;100.00
13312;BME280;34033;48.672;9.376;2023-12-20T04:53:54;98608.81;;;6.48;100.00
13312;BME280;34033;48.672;9.376;2023-12-20T04:56:19;98607.94;;;6.44;100.00
13312;BME280;34033;48.672;9.376;2023-12-20T04:58:45;98629.69;;;6.42;100.00
13312;BME280;34033;48.672;9.376;2023-12-20T05:01:11;98628.53;;;6.43;100.00
13312;BME280;34033;48.672;9.376;2023-12-20T05:03:37;98624.50;;;6.41;100.00
13312;BME280;34033;48.672;9.376;2023-12-20T05:06:02;98620.56;;;6.42;100.00
13312;BME280;34033;48.672;9.376;2023-12-20T05:08:27;98621.09;;;6.47;100.00
13312;BME280;34033;48.672;9.376;2023-12-20T05:10:54;98616.41;;;6.51;100.00
13312;BME280;34033;48.672;9.376;2023-12-20T05:13:19;98619.72;;;6.57;100.00
13312;BME280;34033;48.672;9.376;2023-12-20T05:15:45;98632.47;;;6.58;100.00
13312;BME280;34033;48.672;9.376;2023-12-20T05:18:10;98630.69;;;6.65;100.00
13312;BME280;34033;48.672;9.376;2023-12-20T05:20:35;98632.72;;;6.68;100.00
13312;BME280;34033;48.672;9.376;2023-12-20T05:23:01;98639.53;;;7.06;100.00
13312;BME280;34033;48.672;9.376;2023-12-20T05:25:26;98638.78;;;6.90;100.00
13312;BME280;34033;48.672;9.376;2023-12-20T05:27:52;98637.44;;;6.84;100.00
13312;BME280;34033;48.672;9.376;2023-12-20T05:30:17;98644.53;;;6.81;100.00
13312;BME280;34033;48.672;9.376;2023-12-20T05:32:43;98652.28;;;6.72;100.00
13312;BME280;34033;48.672;9.376;2023-12-20T05:35:08;98662.59;;;6.56;100.00
13312;BME280;34033;48.672;9.376;2023-12-20T05:37:33;98658.28;;;6.58;100.00
13312;BME280;34033;48.672;9.376;2023-12-20T05:39:59;98659.53;;;6.61;100.00
13312;BME280;34033;48.672;9.376;2023-12-20T05:42:24;98659.34;;;6.54;100.00
13312;BME280;34033;48.672;9.376;2023-12-20T05:44:49;98660.03;;;6.51;100.00
13312;BME280;34033;48.672;9.376;2023-12-20T05:47:18;98663.22;;;6.49;100.00
13312;BME280;34033;48.672;9.376;2023-12-20T05:49:47;98658.28;;;6.43;100.00
13312;BME280;34033;48.672;9.376;2023-12-20T05:52:12;98659.16;;;6.47;100.00
13312;BME280;34033;48.672;9.376;2023-12-20T05:54:37;98661.06;;;6.43;100.00
13312;BME280;34033;48.672;9.376;2023-12-20T05:57:03;98675.00;;;6.46;100.00
13312;BME280;34033;48.672;9.376;2023-12-20T05:59:28;98678.25;;;6.48;100.00
13312;BME280;34033;48.672;9.376;2023-12-20T06:01:53;98681.03;;;6.48;100.00
13312;BME280;34033;48.672;9.376;2023-12-20T06:04:19;98680.75;;;6.53;100.00
13312;BME280;34033;48.672;9.376;2023-12-20T06:06:44;98692.13;;;6.33;100.00
13312;BME280;34033;48.672;9.376;2023-12-20T06:09:10;98694.38;;;6.43;100.00
13312;BME280;34033;48.672;9.376;2023-12-20T06:11:35;98692.22;;;6.52;100.00
13312;BME280;34033;48.672;9.376;2023-12-20T06:14:01;98691.50;;;6.70;100.00
13312;BME280;34033;48.672;9.376;2023-12-20T06:16:26;98690.50;;;6.79;100.00
13312;BME280;34033;48.672;9.376;2023-12-20T06:18:51;98702.28;;;6.72;100.00
13312;BME280;34033;48.672;9.376;2023-12-20T06:21:17;98708.81;;;6.80;100.00
13312;BME280;34033;48.672;9.376;2023-12-20T06:23:42;98708.63;;;6.88;100.00
13312;BME280;34033;48.672;9.376;2023-12-20T06:26:07;98717.88;;;6.77;100.00
13312;BME280;34033;48.672;9.376;2023-12-20T06:28:33;98713.56;;;6.63;100.00
13312;BME280;34033;48.672;9.376;2023-12-20T06:30:58;98706.28;;;6.75;100.00
13312;BME280;34033;48.672;9.376;2023-12-20T06:33:25;98712.38;;;6.80;100.00
13312;BME280;34033;48.672;9.376;2023-12-20T06:35:50;98703.59;;;6.78;100.00
13312;BME280;34033;48.672;9.376;2023-12-20T06:38:17;98702.53;;;6.83;100.00
13312;BME280;34033;48.672;9.376;2023-12-20T06:40:43;98705.38;;;8.49;100.00
13312;BME280;34033;48.672;9.376;2023-12-20T06:43:08;98696.41;;;9.08;100.00
13312;BME280;34033;48.672;9.376;2023-12-20T06:45:34;98699.88;;;9.01;91.77
13312;BME280;34033;48.672;9.376;2023-12-20T06:47:59;98704.94;;;8.69;90.13
13312;BME280;34033;48.672;9.376;2023-12-20T06:50:25;98723.88;;;8.60;91.48
13312;BME280;34033;48.672;9.376;2023-12-20T06:52:50;98713.75;;;7.91;90.74
13312;BME280;34033;48.672;9.376;2023-12-20T06:55:17;98717.53;;;7.83;94.83
13312;BME280;34033;48.672;9.376;2023-12-20T06:57:42;98712.72;;;7.45;95.29
13312;BME280;34033;48.672;9.376;2023-12-20T07:00:08;98717.84;;;7.08;97.14
13312;BME280;34033;48.672;9.376;2023-12-20T07:02:33;98721.97;;;7.14;97.98
13312;BME280;34033;48.672;9.376;2023-12-20T07:04:59;98715.63;;;6.82;99.71
13312;BME280;34033;48.672;9.376;2023-12-20T07:07:25;98731.31;;;6.75;100.00
13312;BME280;34033;48.672;9.376;2023-12-20T07:09:50;98734.97;;;6.63;100.00
13312;BME280;34033;48.672;9.376;2023-12-20T07:12:15;98738.13;;;6.77;100.00
13312;BME280;34033;48.672;9.376;2023-12-20T07:14:40;98740.72;;;6.54;100.00
13312;BME280;34033;48.672;9.376;2023-12-20T07:17:06;98738.66;;;6.67;100.00
13312;BME280;34033;48.672;9.376;2023-12-20T07:19:37;98747.25;;;6.62;100.00
13312;BME280;34033;48.672;9.376;2023-12-20T07:22:02;98758.53;;;6.53;100.00
13312;BME280;34033;48.672;9.376;2023-12-20T07:24:28;98757.56;;;6.61;100.00
13312;BME280;34033;48.672;9.376;2023-12-20T07:26:53;98758.44;;;6.50;100.00
13312;BME280;34033;48.672;9.376;2023-12-20T07:29:18;98767.75;;;6.57;100.00
13312;BME280;34033;48.672;9.376;2023-12-20T07:31:44;98761.13;;;6.62;100.00
13312;BME280;34033;48.672;9.376;2023-12-20T07:34:09;98757.56;;;6.61;100.00
13312;BME280;34033;48.672;9.376;2023-12-20T07:36:35;98765.47;;;6.91;100.00
13312;BME280;34033;48.672;9.376;2023-12-20T07:39:00;98769.78;;;6.73;100.00
13312;BME280;34033;48.672;9.376;2023-12-20T07:41:26;98769.38;;;6.74;100.00
13312;BME280;34033;48.672;9.376;2023-12-20T07:43:51;98770.66;;;6.61;100.00
13312;BME280;34033;48.672;9.376;2023-12-20T07:46:17;98777.03;;;6.77;100.00
13312;BME280;34033;48.672;9.376;2023-12-20T07:48:44;98783.66;;;6.73;100.00
13312;BME280;34033;48.672;9.376;2023-12-20T07:51:09;98774.94;;;6.74;100.00
13312;BME280;34033;48.672;9.376;2023-12-20T07:53:35;98799.41;;;6.68;100.00
13312;BME280;34033;48.672;9.376;2023-12-20T07:56:00;98794.19;;;6.51;100.00
13312;BME280;34033;48.672;9.376;2023-12-20T07:58:26;98809.13;;;6.47;100.00
13312;BME280;34033;48.672;9.376;2023-12-20T08:00:51;98806.69;;;6.45;100.00
13312;BME280;34033;48.672;9.376;2023-12-20T08:03:16;98809.47;;;6.45;100.00
13312;BME280;34033;48.672;9.376;2023-12-20T08:05:42;98810.59;;;6.28;100.00
13312;BME280;34033;48.672;9.376;2023-12-20T08:08:07;98802.03;;;6.34;100.00
13312;BME280;34033;48.672;9.376;2023-12-20T08:10:33;98809.56;;;6.33;100.00
13312;BME280;34033;48.672;9.376;2023-12-20T08:12:58;98817.25;;;6.40;100.00
13312;BME280;34033;48.672;9.376;2023-12-20T08:15:23;98812.72;;;6.47;100.00
13312;BME280;34033;48.672;9.376;2023-12-20T08:17:49;98822.88;;;6.55;100.00
13312;BME280;34033;48.672;9.376;2023-12-20T08:20:18;98819.94;;;6.64;100.00
13312;BME280;34033;48.672;9.376;2023-12-20T08:22:43;98824.53;;;6.72;100.00
13312;BME280;34033;48.672;9.376;2023-12-20T08:25:09;98822.09;;;6.70;100.00
13312;BME280;34033;48.672;9.376;2023-12-20T08:27:39;98823.34;;;6.73;100.00
13312;BME280;34033;48.672;9.376;2023-12-20T08:30:05;98833.22;;;6.70;100.00
13312;BME280;34033;48.672;9.376;2023-12-20T08:32:31;98833.03;;;6.79;100.00
13312;BME280;34033;48.672;9.376;2023-12-20T08:34:57;98831.19;;;6.83;100.00
13312;BME280;34033;48.672;9.376;2023-12-20T08:37:22;98828.03;;;6.85;99.38
13312;BME280;34033;48.672;9.376;2023-12-20T08:39:48;98841.81;;;6.65;97.64
13312;BME280;34033;48.672;9.376;2023-12-20T08:42:13;98848.53;;;6.64;97.03
13312;BME280;34033;48.672;9.376;2023-12-20T08:44:38;98842.75;;;6.57;96.01
13312;BME280;34033;48.672;9.376;2023-12-20T08:47:04;98846.34;;;6.58;96.16
13312;BME280;34033;48.672;9.376;2023-12-20T08:49:29;98842.06;;;6.60;96.87
13312;BME280;34033;48.672;9.376;2023-12-20T08:51:55;98847.38;;;6.65;96.69
13312;BME280;34033;48.672;9.376;2023-12-20T08:54:20;98845.00;;;6.67;97.51
13312;BME280;34033;48.672;9.376;2023-12-20T08:56:45;98846.75;;;6.72;97.96
13312;BME280;34033;48.672;9.376;2023-12-20T08:59:11;98854.03;;;6.77;98.60
13312;BME280;34033;48.672;9.376;2023-12-20T09:01:37;98858.81;;;6.64;99.26
13312;BME280;34033;48.672;9.376;2023-12-20T09:04:02;98850.50;;;6.64;100.00
13312;BME280;34033;48.672;9.376;2023-12-20T09:06:28;98848.63;;;6.40;100.00
13312;BME280;34033;48.672;9.376;2023-12-20T09:08:53;98849.16;;;6.46;100.00
13312;BME280;34033;48.672;9.376;2023-12-20T09:11:18;98846.91;;;6.36;100.00
13312;BME280;34033;48.672;9.376;2023-12-20T09:13:43;98859.38;;;6.42;100.00
13312;BME280;34033;48.672;9.376;2023-12-20T09:16:09;98847.66;;;6.48;100.00
13312;BME280;34033;48.672;9.376;2023-12-20T09:18:35;98844.63;;;6.53;100.00
13312;BME280;34033;48.672;9.376;2023-12-20T09:21:00;98850.69;;;6.43;99.38
13312;BME280;34033;48.672;9.376;2023-12-20T09:23:27;98846.84;;;6.48;99.96
13312;BME280;34033;48.672;9.376;2023-12-20T09:25:52;98861.31;;;6.53;98.60
13312;BME280;34033;48.672;9.376;2023-12-20T09:28:17;98856.84;;;6.64;97.36
13312;BME280;34033;48.672;9.376;2023-12-20T09:30:43;98854.34;;;6.59;95.93
13312;BME280;34033;48.672;9.376;2023-12-20T09:33:10;98857.91;;;6.60;95.70
13312;BME280;34033;48.672;9.376;2023-12-20T09:35:35;98854.00;;;6.61;92.36
13312;BME280;34033;48.672;9.376;2023-12-20T09:38:00;98857.72;;;6.53;92.23
13312;BME280;34033;48.672;9.376;2023-12-20T09:40:26;98852.72;;;6.58;91.90
13312;BME280;34033;48.672;9.376;2023-12-20T09:43:01;98849.56;;;7.50;100.00
13312;BME280;34033;48.672;9.376;2023-12-20T09:45:29;98845.72;;;7.08;86.97
13312;BME280;34033;48.672;9.376;2023-12-20T09:47:56;98841.78;;;7.09;85.79
13312;BME280;34033;48.672;9.376;2023-12-20T09:50:22;98847.13;;;6.86;84.18
13312;BME280;34033;48.672;9.376;2023-12-20T09:52:52;98847.94;;;6.87;83.63
13312;BME280;34033;48.672;9.376;2023-12-20T09:55:19;98856.81;;;6.77;83.86
13312;BME280;34033;48.672;9.376;2023-12-20T09:57:45;98858.03;;;6.79;82.52
13312;BME280;34033;48.672;9.376;2023-12-20T10:00:12;98847.03;;;6.83;82.98
13312;BME280;34033;48.672;9.376;2023-12-20T10:02:58;98845.97;;;6.87;82.87
13312;BME280;34033;48.672;9.376;2023-12-20T10:05:29;98851.47;;;6.99;83.18
13312;BME280;34033;48.672;9.376;2023-12-20T10:07:54;98852.50;;;6.95;80.10
13312;BME280;34033;48.672;9.376;2023-12-20T10:10:20;98841.16;;;7.00;79.73
13312;BME280;34033;48.672;9.376;2023-12-20T10:13:08;98848.03;;;7.06;78.45
13312;BME280;34033;48.672;9.376;2023-12-20T10:15:34;98842.31;;;7.15;76.96
13312;BME280;34033;48.672;9.376;2023-12-20T10:18:00;98843.56;;;7.17;75.75
13312;BME280;34033;48.672;9.376;2023-12-20T10:20:26;98833.09;;;7.26;76.48
13312;BME280;34033;48.672;9.376;2023-12-20T10:22:54;98832.44;;;7.17;76.92
13312;BME280;34033;48.672;9.376;2023-12-20T10:25:23;98837.09;;;7.13;76.88
13312;BME280;34033;48.672;9.376;2023-12-20T10:27:49;98831.28;;;7.02;75.49
13312;BME280;34033;48.672;9.376;2023-12-20T10:30:15;98823.34;;;6.73;75.51
13312;BME280;34033;48.672;9.376;2023-12-20T10:32:40;98825.94;;;6.66;76.77
13312;BME280;34033;48.672;9.376;2023-12-20T10:35:06;98831.78;;;6.77;75.22
13312;BME280;34033;48.672;9.376;2023-12-20T10:37:35;98811.53;;;6.92;74.64
13312;BME280;34033;48.672;9.376;2023-12-20T10:40:03;98811.19;;;7.09;74.00
13312;BME280;34033;48.672;9.376;2023-12-20T10:42:31;98819.53;;;7.25;73.37
13312;BME280;34033;48.672;9.376;2023-12-20T10:44:59;98817.28;;;7.46;72.35
13312;BME280;34033;48.672;9.376;2023-12-20T10:47:24;98822.28;;;7.56;70.74
13312;BME280;34033;48.672;9.376;2023-12-20T10:49:52;98814.44;;;7.77;68.83
13312;BME280;34033;48.672;9.376;2023-12-20T10:52:17;98817.63;;;7.95;69.64
13312;BME280;34033;48.672;9.376;2023-12-20T10:54:44;98820.97;;;7.85;67.22
13312;BME280;34033;48.672;9.376;2023-12-20T10:57:09;98821.66;;;7.63;66.39
13312;BME280;34033;48.672;9.376;2023-12-20T10:59:37;98807.88;;;7.35;66.82
13312;BME280;34033;48.672;9.376;2023-12-20T11:02:04;98810.66;;;7.19;67.53
13312;BME280;34033;48.672;9.376;2023-12-20T11:07:25;98813.72;;;7.14;67.14
13312;BME280;34033;48.672;9.376;2023-12-20T11:10:29;98824.03;;;7.13;64.62
13312;BME280;34033;48.672;9.376;2023-12-20T11:13:20;98816.03;;;7.12;64.63
13312;BME280;34033;48.672;9.376;2023-12-20T11:15:48;98811.19;;;7.09;62.67
13312;BME280;34033;48.672;9.376;2023-12-20T11:18:14;98807.81;;;7.00;64.24
13312;BME280;34033;48.672;9.376;2023-12-20T11:20:41;98811.00;;;7.02;63.22
13312;BME280;34033;48.672;9.376;2023-12-20T11:23:08;98806.44;;;7.09;63.05
13312;BME280;34033;48.672;9.376;2023-12-20T11:25:46;98804.19;;;7.31;63.01
13312;BME280;34033;48.672;9.376;2023-12-20T11:28:12;98810.19;;;7.48;63.28
13312;BME280;34033;48.672;9.376;2023-12-20T11:30:42;98812.06;;;7.44;62.16
13312;BME280;34033;48.672;9.376;2023-12-20T11:33:08;98811.63;;;7.42;61.71
13312;BME280;34033;48.672;9.376;2023-12-20T11:35:33;98807.03;;;7.50;63.54
13312;BME280;34033;48.672;9.376;2023-12-20T11:38:00;98834.78;;;7.46;62.77
13312;BME280;34033;48.672;9.376;2023-12-20T11:40:25;98824.63;;;7.23;63.20
13312;BME280;34033;48.672;9.376;2023-12-20T11:42:51;98812.06;;;7.44;66.34
13312;BME280;34033;48.672;9.376;2023-12-20T11:45:24;98802.66;;;7.49;63.76
13312;BME280;34033;48.672;9.376;2023-12-20T11:47:50;98800.41;;;7.39;64.57
13312;BME280;34033;48.672;9.376;2023-12-20T11:50:17;98815.03;;;7.51;62.79
13312;BME280;34033;48.672;9.376;2023-12-20T11:52:43;98792.16;;;7.42;61.90
13312;BME280;34033;48.672;9.376;2023-12-20T11:55:08;98805.72;;;7.28;63.03
13312;BME280;34033;48.672;9.376;2023-12-20T11:57:34;98805.97;;;7.23;62.62
13312;BME280;34033;48.672;9.376;2023-12-20T12:00:00;98795.53;;;7.17;63.79
13312;BME280;34033;48.672;9.376;2023-12-20T12:02:26;98793.78;;;7.12;63.32
13312;BME280;34033;48.672;9.376;2023-12-20T12:04:51;98807.88;;;7.03;63.75
13312;BME280;34033;48.672;9.376;2023-12-20T12:07:17;98791.81;;;7.12;64.31
13312;BME280;34033;48.672;9.376;2023-12-20T12:09:43;98793.16;;;7.19;63.26
13312;BME280;34033;48.672;9.376;2023-12-20T12:12:09;98792.53;;;7.25;63.82
13312;BME280;34033;48.672;9.376;2023-12-20T12:14:35;98792.81;;;7.20;63.35
13312;BME280;34033;48.672;9.376;2023-12-20T12:17:02;98806.09;;;7.77;77.23
13312;BME280;34033;48.672;9.376;2023-12-20T12:19:28;98787.97;;;7.68;64.14
13312;BME280;34033;48.672;9.376;2023-12-20T12:22:08;98805.47;;;7.68;62.88
13312;BME280;34033;48.672;9.376;2023-12-20T12:24:36;98798.69;;;7.66;63.40
13312;BME280;34033;48.672;9.376;2023-12-20T12:27:02;98794.38;;;7.52;63.97
13312;BME280;34033;48.672;9.376;2023-12-20T12:29:29;98792.44;;;7.37;64.36
13312;BME280;34033;48.672;9.376;2023-12-20T12:31:54;98809.56;;;7.24;63.65
13312;BME280;34033;48.672;9.376;2023-12-20T12:34:20;98796.03;;;7.06;63.03
13312;BME280;34033;48.672;9.376;2023-12-20T12:36:45;98790.59;;;6.94;63.93
13312;BME280;34033;48.672;9.376;2023-12-20T12:39:15;98789.78;;;6.94;64.43
13312;BME280;34033;48.672;9.376;2023-12-20T12:41:42;98786.88;;;6.90;65.24
13312;BME280;34033;48.672;9.376;2023-12-20T12:44:08;98790.66;;;6.98;66.34
13312;BME280;34033;48.672;9.376;2023-12-20T12:46:33;98785.72;;;6.91;67.50
13312;BME280;34033;48.672;9.376;2023-12-20T12:48:59;98782.31;;;6.98;70.31
13312;BME280;34033;48.672;9.376;2023-12-20T12:51:25;98790.47;;;7.06;69.07
13312;BME280;34033;48.672;9.376;2023-12-20T12:53:50;98781.59;;;7.01;68.28
13312;BME280;34033;48.672;9.376;2023-12-20T12:56:15;98775.94;;;6.97;67.02
13312;BME280;34033;48.672;9.376;2023-12-20T12:58:41;98778.28;;;6.95;65.23
13312;BME280;34033;48.672;9.376;2023-12-20T13:01:07;98780.50;;;6.90;66.19
13312;BME280;34033;48.672;9.376;2023-12-20T13:03:32;98769.84;;;6.92;68.29